LGIR/HER METAR and TAF weather

Enter ICAO airport designator
Station Type Date Time Source
LGIR METAR 2019/02/18 04:20 UTC NOAA

LGIR 180420Z 32011KT 9999 FEW012 BKN025 BKN080 12/06 Q1022 NOSIG


Station Type Date Time Source
LGIR Decoded METAR 2019/02/18 04:20 UTC NOAA

Heraklion Airport , Greece (LGIR) 35-20N 025-11E 39M
Feb 17, 2019 - 11:20 PM EST / 2019.02.18 0420 UTC
Wind: from the NW (320 degrees) at 13 MPH (11 KT):0
Visibility: greater than 7 mile(s):0
Sky conditions: mostly cloudy
Temperature: 53 F (12 C)
Dew Point: 42 F (6 C)
Relative Humidity: 66%
Pressure (altimeter): 30.18 in. Hg (1022 hPa)
ob: LGIR 180420Z 32011KT 9999 FEW012 BKN025 BKN080 12/06 Q1022 NOSIG
cycle: 4

Station Type Date Time Source
LGIR TAF 2019/02/17 18:12 UTC NOAA

TAF LGIR 171700Z 1718/1818 35013KT 9000 SCT025 PROB40
TEMPO 1718/1724 5000 RA FEW012 FEW016TCU BKN025 BKN080


Example: see airport list